Time;durP1;ratioP1;P1;durP2;ratioP2;P2;SDS_P1;SDS_P2;PMS_P1;PMS_P2;Temp;Humidity;BMP_temperature;BMP_pressure;BME280_temperature;BME280_humidity;BME280_pressure;Samples;Min_cycle;Max_cycle;Signal;HPM_P1;HPM_P2
2023/01/09 00:02:08;;;;;;;56.57;33.43;;;8.10;99.90;;;;;;5011144;28;20203;-69
2023/01/09 00:04:37;;;;;;;55.00;32.93;;;8.10;99.90;;;;;;5010196;28;20750;-71
2023/01/09 00:07:05;;;;;;;54.03;34.13;;;8.00;99.90;;;;;;5001063;28;20545;-70
2023/01/09 00:09:34;;;;;;;57.97;33.60;;;8.00;99.90;;;;;;5011871;28;20191;-69
2023/01/09 00:12:03;;;;;;;58.23;34.57;;;8.00;99.90;;;;;;5011512;28;20265;-69
2023/01/09 00:14:32;;;;;;;60.80;34.33;;;8.00;99.90;;;;;;5011665;28;20257;-69
2023/01/09 00:17:02;;;;;;;59.53;35.83;;;8.10;99.90;;;;;;5011701;28;20192;-69
2023/01/09 00:19:31;;;;;;;60.47;35.77;;;8.00;99.90;;;;;;5011735;28;20195;-69
2023/01/09 00:22:00;;;;;;;63.27;35.23;;;8.00;99.90;;;;;;5013503;28;20210;-69
2023/01/09 00:24:29;;;;;;;56.80;33.47;;;7.90;99.90;;;;;;5014952;28;20609;-69
2023/01/09 00:26:58;;;;;;;62.97;36.60;;;7.90;99.90;;;;;;5014978;28;20226;-69
2023/01/09 00:29:27;;;;;;;58.13;35.93;;;8.00;99.90;;;;;;5013686;28;20308;-70
2023/01/09 00:31:56;;;;;;;61.87;35.60;;;8.00;99.90;;;;;;5014877;28;20207;-71
2023/01/09 00:34:27;;;;;;;61.70;36.07;;;8.00;99.90;;;;;;5014917;28;20218;-70
2023/01/09 00:36:56;;;;;;;58.73;33.17;;;8.00;99.90;;;;;;5014764;28;20254;-69
2023/01/09 00:39:25;;;;;;;62.53;35.00;;;8.10;99.90;;;;;;5014918;28;20199;-69
2023/01/09 00:41:57;;;;;;;60.70;33.63;;;8.00;99.90;;;;;;5014856;28;20199;-69
2023/01/09 00:44:32;;;;;;;61.00;34.77;;;8.00;99.90;;;;;;5014685;28;20542;-72
2023/01/09 00:47:06;;;;;;;59.70;34.27;;;7.90;99.90;;;;;;5014778;28;20222;-71
2023/01/09 00:49:37;;;;;;;63.43;34.97;;;7.90;99.90;;;;;;5014588;28;20194;-71
2023/01/09 00:52:09;;;;;;;60.63;34.60;;;7.90;99.90;;;;;;5014572;28;20697;-71
2023/01/09 00:54:39;;;;;;;61.57;32.37;;;8.00;99.90;;;;;;5014361;28;20229;-70
2023/01/09 00:57:08;;;;;;;57.50;34.37;;;8.00;99.90;;;;;;5014279;28;20231;-71
2023/01/09 00:59:37;;;;;;;67.57;35.83;;;8.00;99.90;;;;;;5014361;28;20195;-71
2023/01/09 01:02:06;;;;;;;58.87;32.87;;;7.90;99.90;;;;;;5014528;28;20221;-70
2023/01/09 01:07:42;;;;;;;59.07;33.97;;;8.00;99.90;;;;;;5014389;28;20203;-71
2023/01/09 01:10:15;;;;;;;55.57;33.73;;;8.00;99.90;;;;;;5014257;28;20211;-71
2023/01/09 01:12:44;;;;;;;54.77;32.70;;;8.10;99.90;;;;;;5014179;28;20245;-71
2023/01/09 01:15:13;;;;;;;61.47;34.13;;;8.10;99.90;;;;;;5014051;28;20269;-70
2023/01/09 01:17:44;;;;;;;60.43;33.73;;;8.20;99.90;;;;;;5014174;28;20274;-70
2023/01/09 01:20:18;;;;;;;58.83;32.47;;;8.10;99.90;;;;;;5012850;28;20206;-71
2023/01/09 01:22:47;;;;;;;64.43;34.37;;;8.10;99.90;;;;;;5013993;28;20211;-70
2023/01/09 01:25:16;;;;;;;60.03;32.83;;;8.00;99.90;;;;;;5013860;28;20198;-71
2023/01/09 01:27:46;;;;;;;61.43;34.47;;;8.00;99.90;;;;;;5013787;28;20234;-71
2023/01/09 01:30:16;;;;;;;64.37;35.00;;;8.10;99.90;;;;;;5013774;28;20192;-70
2023/01/09 01:32:45;;;;;;;63.07;33.80;;;8.10;99.90;;;;;;5013706;28;20784;-71
2023/01/09 01:35:15;;;;;;;63.10;33.87;;;8.10;99.90;;;;;;5013607;28;20218;-71
2023/01/09 01:37:44;;;;;;;61.23;33.77;;;8.10;99.90;;;;;;5013789;28;20195;-70
2023/01/09 01:40:13;;;;;;;61.93;35.83;;;8.10;99.90;;;;;;5013573;28;20207;-71
2023/01/09 01:42:47;;;;;;;58.27;32.87;;;8.20;99.90;;;;;;5013713;28;20195;-71
2023/01/09 01:45:18;;;;;;;62.03;33.53;;;8.10;99.90;;;;;;5013443;28;20731;-70
2023/01/09 01:47:53;;;;;;;63.27;34.73;;;8.10;99.90;;;;;;5013669;28;20196;-72
2023/01/09 01:50:31;;;;;;;59.90;34.03;;;8.10;99.90;;;;;;5013453;28;20202;-70
2023/01/09 01:53:07;;;;;;;58.47;33.63;;;8.10;99.90;;;;;;5013473;28;20573;-71
2023/01/09 01:55:39;;;;;;;64.10;33.63;;;8.20;99.90;;;;;;5013326;28;20219;-71
2023/01/09 01:58:11;;;;;;;64.73;32.03;;;8.20;99.90;;;;;;5013163;28;20361;-72
2023/01/09 02:00:43;;;;;;;56.43;31.87;;;8.30;99.90;;;;;;5013237;28;20217;-71
2023/01/09 02:03:17;;;;;;;63.27;33.23;;;8.20;99.90;;;;;;5013288;28;20206;-70
2023/01/09 02:05:48;;;;;;;65.27;33.87;;;8.20;99.90;;;;;;5013237;28;20195;-70
2023/01/09 02:08:18;;;;;;;61.23;33.70;;;8.10;99.90;;;;;;5013059;28;20210;-72
2023/01/09 02:10:47;;;;;;;60.43;32.17;;;8.10;99.90;;;;;;5013030;28;20203;-71
2023/01/09 02:13:16;;;;;;;64.20;33.47;;;8.10;99.90;;;;;;5013101;28;20616;-71
2023/01/09 02:15:57;;;;;;;56.43;31.83;;;8.20;99.90;;;;;;5012836;28;20296;-72
2023/01/09 02:18:47;;;;;;;55.53;31.70;;;8.10;99.90;;;;;;5013163;28;20195;-71
2023/01/09 02:21:25;;;;;;;59.67;32.03;;;8.10;99.90;;;;;;5013080;28;20204;-71
2023/01/09 02:24:20;;;;;;;62.40;32.37;;;8.10;99.90;;;;;;5012884;28;20202;-72
2023/01/09 02:27:03;;;;;;;62.00;33.30;;;8.00;99.90;;;;;;5012870;28;20191;-72
2023/01/09 02:30:05;;;;;;;54.47;29.43;;;7.90;99.90;;;;;;5012875;28;20198;-72
2023/01/09 02:32:49;;;;;;;59.47;31.70;;;7.90;99.90;;;;;;5012799;28;20206;-71
2023/01/09 02:35:30;;;;;;;57.13;33.10;;;7.80;99.90;;;;;;5012668;28;20228;-72
2023/01/09 02:38:09;;;;;;;55.13;29.67;;;7.80;99.90;;;;;;5012896;28;20542;-71
2023/01/09 02:40:44;;;;;;;61.17;32.83;;;7.80;99.90;;;;;;5012665;28;20567;-70
2023/01/09 02:43:14;;;;;;;61.10;33.27;;;7.80;99.90;;;;;;5012585;28;20179;-70
2023/01/09 02:45:43;;;;;;;55.10;31.07;;;7.80;99.90;;;;;;5012158;28;20277;-70
2023/01/09 02:48:13;;;;;;;56.60;32.47;;;7.80;99.90;;;;;;5012625;28;20201;-70
2023/01/09 02:50:50;;;;;;;58.30;31.07;;;7.70;99.90;;;;;;5012651;28;20198;-72
2023/01/09 02:53:49;;;;;;;55.87;31.97;;;7.70;99.90;;;;;;5012615;28;20199;-70
2023/01/09 02:56:33;;;;;;;59.53;33.67;;;7.60;99.90;;;;;;5012126;28;20296;-70
2023/01/09 02:59:18;;;;;;;58.43;32.20;;;7.70;99.90;;;;;;5012244;28;20195;-71
2023/01/09 03:01:56;;;;;;;59.77;31.67;;;7.70;99.90;;;;;;5012328;28;20198;-72
2023/01/09 03:04:38;;;;;;;59.57;32.00;;;7.80;99.90;;;;;;5012378;28;20289;-72
2023/01/09 03:07:14;;;;;;;54.87;30.57;;;7.70;99.90;;;;;;5012711;28;20732;-72
2023/01/09 03:09:47;;;;;;;59.13;32.27;;;7.70;99.90;;;;;;5012332;28;20214;-71
2023/01/09 03:12:19;;;;;;;58.27;31.87;;;7.70;99.90;;;;;;5012254;28;20210;-71
2023/01/09 03:14:52;;;;;;;65.40;32.07;;;7.60;99.90;;;;;;5012377;28;20237;-70
2023/01/09 03:17:26;;;;;;;60.60;32.20;;;7.70;99.90;;;;;;5012157;28;20233;-71
2023/01/09 03:19:59;;;;;;;58.03;32.00;;;7.70;99.90;;;;;;5012197;28;20191;-71
2023/01/09 03:22:28;;;;;;;55.97;30.27;;;7.70;99.90;;;;;;5012241;28;20195;-71
2023/01/09 03:24:56;;;;;;;53.43;30.40;;;7.70;99.90;;;;;;5012116;28;20222;-71
2023/01/09 03:27:26;;;;;;;59.63;31.83;;;7.70;99.90;;;;;;5012116;28;20205;-70
2023/01/09 03:29:55;;;;;;;63.93;32.43;;;7.60;99.90;;;;;;5012247;28;20253;-70
2023/01/09 03:32:26;;;;;;;58.90;32.53;;;7.60;99.90;;;;;;5012131;28;20212;-70
2023/01/09 03:34:56;;;;;;;56.47;31.57;;;7.70;99.90;;;;;;5012078;28;20611;-70
2023/01/09 03:37:25;;;;;;;56.60;31.40;;;7.70;99.90;;;;;;5012041;28;20708;-70
2023/01/09 03:39:54;;;;;;;59.83;32.83;;;7.70;99.90;;;;;;5012043;28;20199;-70
2023/01/09 03:42:23;;;;;;;59.47;32.67;;;7.60;99.90;;;;;;5011996;28;20274;-70
2023/01/09 03:44:52;;;;;;;54.93;31.57;;;7.70;99.90;;;;;;5011978;28;20195;-69
2023/01/09 03:47:21;;;;;;;55.77;30.40;;;7.70;99.90;;;;;;5012012;28;20199;-70
2023/01/09 03:49:50;;;;;;;59.77;31.53;;;7.60;99.90;;;;;;5012018;28;21022;-70
2023/01/09 03:52:20;;;;;;;55.80;32.23;;;7.70;99.90;;;;;;5011859;28;20223;-69
2023/01/09 03:54:49;;;;;;;54.47;30.20;;;7.70;99.90;;;;;;5011823;28;20575;-68
2023/01/09 03:57:18;;;;;;;59.43;32.97;;;7.70;99.90;;;;;;5013912;28;20780;-69
2023/01/09 03:59:46;;;;;;;54.20;31.10;;;7.70;99.90;;;;;;5015705;28;20203;-70
2023/01/09 04:02:15;;;;;;;54.20;30.67;;;7.70;99.90;;;;;;5015596;28;20294;-70
2023/01/09 04:04:44;;;;;;;49.77;27.03;;;7.70;99.90;;;;;;5015533;28;20203;-70
2023/01/09 04:07:13;;;;;;;52.93;30.77;;;7.60;99.90;;;;;;5015454;28;20195;-71
2023/01/09 04:09:43;;;;;;;53.47;30.13;;;7.50;99.90;;;;;;5015486;28;20222;-70
2023/01/09 04:12:13;;;;;;;56.97;31.27;;;7.50;99.90;;;;;;4995763;28;20208;-69
2023/01/09 04:14:42;;;;;;;53.53;30.63;;;7.50;99.90;;;;;;4995751;28;20210;-70
2023/01/09 04:17:10;;;;;;;56.27;31.00;;;7.50;99.90;;;;;;4995562;28;20274;-70
2023/01/09 04:19:39;;;;;;;54.17;29.87;;;7.50;99.90;;;;;;4995619;28;20248;-70
2023/01/09 04:22:08;;;;;;;55.57;30.83;;;7.60;99.90;;;;;;4995568;28;20686;-71
2023/01/09 04:24:37;;;;;;;54.97;31.03;;;7.50;99.90;;;;;;4995578;28;20618;-70
2023/01/09 04:27:07;;;;;;;61.00;32.07;;;7.50;99.90;;;;;;4995473;28;20218;-70
2023/01/09 04:29:36;;;;;;;60.23;31.63;;;7.50;99.90;;;;;;4995474;28;20634;-71
2023/01/09 04:32:05;;;;;;;55.17;31.57;;;7.50;99.90;;;;;;4995206;28;20196;-70
2023/01/09 04:34:34;;;;;;;57.10;30.77;;;7.50;99.90;;;;;;4995486;28;20207;-71
2023/01/09 04:37:03;;;;;;;54.70;31.07;;;7.50;99.90;;;;;;4995504;28;20700;-70
2023/01/09 04:39:32;;;;;;;54.47;30.03;;;7.40;99.90;;;;;;4995347;28;20199;-71
2023/01/09 04:42:01;;;;;;;57.53;32.80;;;7.40;99.90;;;;;;4995197;28;20243;-71
2023/01/09 04:44:31;;;;;;;57.33;31.47;;;7.30;99.90;;;;;;4995300;28;20227;-71
2023/01/09 04:47:00;;;;;;;52.70;28.93;;;7.40;99.90;;;;;;5006043;28;20209;-71
2023/01/09 04:49:29;;;;;;;57.50;33.87;;;7.40;99.90;;;;;;5014746;28;20195;-72
2023/01/09 04:51:58;;;;;;;57.50;31.73;;;7.40;99.90;;;;;;5014643;28;20207;-71
2023/01/09 04:54:27;;;;;;;56.13;31.63;;;7.30;99.90;;;;;;5014536;28;20195;-71
2023/01/09 04:56:56;;;;;;;55.73;30.83;;;7.30;99.90;;;;;;5014336;28;20243;-71
2023/01/09 04:59:25;;;;;;;56.43;30.70;;;7.30;99.90;;;;;;5014528;28;20218;-72
2023/01/09 05:01:57;;;;;;;54.43;30.83;;;7.30;99.90;;;;;;5014374;28;20217;-70
2023/01/09 05:04:26;;;;;;;55.07;29.57;;;7.30;99.90;;;;;;5014488;28;20198;-70
2023/01/09 05:06:55;;;;;;;57.53;32.10;;;7.30;99.90;;;;;;5013902;28;20302;-73
2023/01/09 05:09:23;;;;;;;57.93;32.33;;;7.30;99.90;;;;;;5014460;28;20195;-71
2023/01/09 05:11:52;;;;;;;55.30;31.07;;;7.30;99.90;;;;;;5013805;28;20665;-70
2023/01/09 05:14:21;;;;;;;59.90;31.00;;;7.30;99.90;;;;;;5013385;28;20188;-70
2023/01/09 05:16:50;;;;;;;54.03;31.40;;;7.30;99.90;;;;;;5013201;28;20630;-69
2023/01/09 05:19:22;;;;;;;60.00;34.03;;;7.30;99.90;;;;;;5006612;28;20258;-69
2023/01/09 05:21:51;;;;;;;61.20;34.13;;;7.20;99.90;;;;;;5012886;28;20207;-71
2023/01/09 05:24:20;;;;;;;58.03;32.70;;;7.30;99.90;;;;;;5007071;28;20200;-68
2023/01/09 05:26:49;;;;;;;57.00;32.37;;;7.30;99.90;;;;;;4993439;28;20277;-71
2023/01/09 05:29:18;;;;;;;56.03;32.17;;;7.30;99.90;;;;;;4993444;28;20745;-69
2023/01/09 05:31:46;;;;;;;54.70;31.77;;;7.40;99.90;;;;;;5006360;28;20735;-69
2023/01/09 05:34:15;;;;;;;56.13;31.33;;;7.40;99.90;;;;;;5013608;28;20242;-71
2023/01/09 05:36:46;;;;;;;56.90;33.90;;;7.40;99.90;;;;;;5013730;28;20197;-71
2023/01/09 05:39:14;;;;;;;59.17;32.57;;;7.40;99.90;;;;;;5012471;28;20191;-70
2023/01/09 05:41:43;;;;;;;57.80;30.97;;;7.40;99.90;;;;;;4993943;28;20665;-71
2023/01/09 05:44:12;;;;;;;54.40;30.57;;;7.40;99.90;;;;;;4994119;28;20421;-70
2023/01/09 05:46:41;;;;;;;57.20;32.83;;;7.40;99.90;;;;;;4993842;28;20211;-70
2023/01/09 05:49:10;;;;;;;59.40;32.60;;;7.40;99.90;;;;;;4993853;28;20287;-70
2023/01/09 05:51:40;;;;;;;62.33;33.47;;;7.40;99.90;;;;;;4994015;28;20219;-69
2023/01/09 05:54:13;;;;;;;58.80;32.13;;;7.30;99.90;;;;;;4993722;28;20223;-69
2023/01/09 05:56:42;;;;;;;55.60;32.43;;;7.30;99.90;;;;;;4993601;28;20231;-71
2023/01/09 05:59:11;;;;;;;58.60;32.53;;;7.30;99.90;;;;;;4993842;28;20204;-72
2023/01/09 06:01:40;;;;;;;55.10;30.60;;;7.40;99.90;;;;;;4993641;28;20203;-70
2023/01/09 06:04:09;;;;;;;63.17;35.00;;;7.30;99.90;;;;;;4993734;28;20204;-70
2023/01/09 06:06:38;;;;;;;58.23;33.70;;;7.40;99.90;;;;;;4993681;28;20211;-73
2023/01/09 06:09:08;;;;;;;59.70;34.17;;;7.40;99.90;;;;;;4993965;28;20603;-72
2023/01/09 06:11:38;;;;;;;59.70;32.40;;;7.40;99.90;;;;;;4993627;28;20246;-71
2023/01/09 06:14:07;;;;;;;62.00;34.50;;;7.50;99.90;;;;;;4993557;28;20215;-70
2023/01/09 06:16:36;;;;;;;55.33;32.50;;;7.40;99.90;;;;;;4993608;28;20246;-73
2023/01/09 06:19:05;;;;;;;61.80;33.23;;;7.40;99.90;;;;;;4992604;28;20724;-73
2023/01/09 06:21:34;;;;;;;57.07;31.40;;;7.40;99.90;;;;;;4993477;28;20775;-72
2023/01/09 06:24:03;;;;;;;59.87;32.47;;;7.40;99.90;;;;;;4993456;28;20670;-71
2023/01/09 06:26:32;;;;;;;57.33;31.57;;;7.50;99.90;;;;;;4993514;28;20797;-74
2023/01/09 06:29:02;;;;;;;57.60;30.33;;;7.50;99.90;;;;;;4993411;28;20196;-74
2023/01/09 06:31:31;;;;;;;69.07;34.63;;;7.40;99.90;;;;;;4993377;28;20195;-72
2023/01/09 06:34:00;;;;;;;54.73;30.93;;;7.40;99.90;;;;;;4993144;28;20192;-72
2023/01/09 06:36:29;;;;;;;59.00;33.80;;;7.40;99.90;;;;;;4993487;28;20319;-72
2023/01/09 06:38:57;;;;;;;54.37;32.97;;;7.50;99.90;;;;;;4993169;28;20228;-73
2023/01/09 06:41:26;;;;;;;54.70;31.13;;;7.50;99.90;;;;;;4993201;28;20667;-73
2023/01/09 06:43:55;;;;;;;61.60;36.40;;;7.50;99.90;;;;;;4993204;28;20200;-71
2023/01/09 06:46:26;;;;;;;57.23;31.93;;;7.60;99.90;;;;;;4993123;28;20210;-71
2023/01/09 06:48:55;;;;;;;52.73;30.03;;;7.60;99.90;;;;;;4992921;28;20259;-70
2023/01/09 06:51:23;;;;;;;52.67;31.33;;;7.60;99.90;;;;;;4993046;28;20202;-70
2023/01/09 06:53:52;;;;;;;49.87;30.60;;;7.60;99.90;;;;;;4992914;28;20204;-72
2023/01/09 06:56:21;;;;;;;50.20;30.23;;;7.60;99.90;;;;;;4992739;28;20599;-71
2023/01/09 06:58:50;;;;;;;54.70;32.50;;;7.60;99.90;;;;;;4992744;28;20231;-72
2023/01/09 07:01:19;;;;;;;51.13;31.20;;;7.70;99.90;;;;;;4992598;28;20674;-74
2023/01/09 07:03:49;;;;;;;51.40;31.17;;;7.70;99.90;;;;;;4992819;28;20282;-70
2023/01/09 07:06:19;;;;;;;54.10;30.40;;;7.80;99.90;;;;;;4992854;28;20331;-73
2023/01/09 07:08:47;;;;;;;48.17;29.77;;;7.80;99.90;;;;;;4992769;28;20195;-70
2023/01/09 07:11:16;;;;;;;50.27;30.43;;;7.80;99.90;;;;;;4992642;28;20258;-70
2023/01/09 07:13:45;;;;;;;51.10;29.10;;;7.90;99.90;;;;;;4992758;28;20234;-71
2023/01/09 07:16:14;;;;;;;57.57;31.73;;;7.80;99.90;;;;;;4992628;28;20286;-70
2023/01/09 07:18:43;;;;;;;49.73;30.97;;;7.90;99.90;;;;;;4992501;28;20326;-71
2023/01/09 07:21:13;;;;;;;51.67;30.83;;;7.90;99.90;;;;;;4992698;28;20242;-71
2023/01/09 07:23:42;;;;;;;53.90;31.63;;;7.90;99.90;;;;;;4992632;28;20202;-72
2023/01/09 07:26:11;;;;;;;53.57;30.73;;;7.90;99.90;;;;;;4992693;28;20242;-73
2023/01/09 07:28:40;;;;;;;50.70;31.23;;;7.90;99.90;;;;;;4992589;28;20200;-70
2023/01/09 07:31:09;;;;;;;45.87;29.00;;;7.90;99.90;;;;;;4994902;28;20239;-70
2023/01/09 07:33:39;;;;;;;48.90;29.93;;;7.80;99.90;;;;;;4996750;28;20561;-70
2023/01/09 07:36:08;;;;;;;54.83;30.47;;;7.80;99.90;;;;;;4996547;28;20199;-72
2023/01/09 07:38:39;;;;;;;48.30;31.53;;;7.90;99.90;;;;;;4996496;28;20576;-72
2023/01/09 07:41:07;;;;;;;44.97;28.33;;;7.90;99.90;;;;;;4996454;28;20700;-72
2023/01/09 07:43:37;;;;;;;47.93;30.40;;;7.90;99.90;;;;;;4996525;28;20223;-72
2023/01/09 07:46:06;;;;;;;53.17;31.40;;;7.80;99.90;;;;;;4996447;28;20693;-71
2023/01/09 07:48:35;;;;;;;51.93;29.23;;;7.90;99.90;;;;;;4995007;28;20545;-70
2023/01/09 07:51:05;;;;;;;49.30;31.13;;;7.80;99.90;;;;;;4996402;28;20238;-70
2023/01/09 07:53:33;;;;;;;50.93;29.67;;;7.80;99.90;;;;;;4996285;28;20199;-71
2023/01/09 07:56:04;;;;;;;56.83;33.20;;;7.90;99.90;;;;;;4995974;28;20274;-70
2023/01/09 07:58:33;;;;;;;51.97;30.43;;;7.90;99.90;;;;;;4996100;28;20223;-70
2023/01/09 08:01:02;;;;;;;53.17;29.17;;;7.90;99.90;;;;;;4996294;28;20188;-71
2023/01/09 08:03:32;;;;;;;50.97;31.60;;;8.00;99.90;;;;;;4996014;28;20616;-72
2023/01/09 08:06:01;;;;;;;89.77;50.47;;;8.00;99.90;;;;;;4996147;28;20251;-71
2023/01/09 08:08:30;;;;;;;51.30;33.83;;;7.90;99.90;;;;;;4995887;28;20216;-69
2023/01/09 08:10:59;;;;;;;50.97;31.43;;;7.90;99.90;;;;;;4995972;28;20203;-70
2023/01/09 08:13:29;;;;;;;79.10;44.73;;;7.90;99.90;;;;;;4995748;28;20633;-70
2023/01/09 08:15:58;;;;;;;70.27;42.37;;;7.90;99.90;;;;;;4995985;28;20292;-71
2023/01/09 08:18:27;;;;;;;53.50;31.33;;;8.00;99.90;;;;;;4995805;28;20657;-70
2023/01/09 08:20:55;;;;;;;58.43;36.97;;;8.00;99.90;;;;;;4995885;28;20242;-72
2023/01/09 08:23:24;;;;;;;55.00;36.80;;;8.00;99.90;;;;;;4995714;28;20203;-72
2023/01/09 08:25:53;;;;;;;52.10;30.97;;;8.10;99.90;;;;;;4995871;28;20196;-72
2023/01/09 08:28:24;;;;;;;53.23;30.70;;;8.10;99.90;;;;;;4995801;28;20200;-70
2023/01/09 08:30:54;;;;;;;50.57;32.83;;;8.10;99.90;;;;;;4995831;28;20801;-69
2023/01/09 08:33:23;;;;;;;58.83;34.17;;;8.00;99.90;;;;;;4995675;28;20196;-69
2023/01/09 08:35:52;;;;;;;54.63;32.50;;;8.00;99.90;;;;;;4995547;28;20196;-69
2023/01/09 08:38:22;;;;;;;57.70;33.17;;;8.00;99.90;;;;;;4995489;28;20207;-69
2023/01/09 08:40:51;;;;;;;57.60;35.33;;;8.00;99.90;;;;;;4995568;28;20199;-70
2023/01/09 08:49:04;;;;;;;61.33;34.67;;;7.90;99.90;;;;;;4995218;28;20219;-70
2023/01/09 08:51:32;;;;;;;54.63;35.10;;;7.80;99.90;;;;;;4995293;28;20279;-71
2023/01/09 08:54:01;;;;;;;57.37;31.20;;;7.80;99.90;;;;;;4995164;28;20215;-72
2023/01/09 08:56:30;;;;;;;56.47;33.07;;;7.70;99.90;;;;;;4994643;28;20330;-71
2023/01/09 08:58:59;;;;;;;57.37;34.53;;;7.70;99.90;;;;;;4994897;28;20219;-70
2023/01/09 09:01:29;;;;;;;54.63;32.70;;;7.80;99.90;;;;;;4994949;28;20282;-71
2023/01/09 09:03:58;;;;;;;58.40;35.67;;;7.80;99.90;;;;;;4994846;28;20206;-73
2023/01/09 09:06:27;;;;;;;63.70;33.80;;;7.80;99.90;;;;;;4994887;28;20237;-71
2023/01/09 09:08:56;;;;;;;59.53;33.90;;;7.80;99.90;;;;;;4993551;28;20210;-71
2023/01/09 09:11:25;;;;;;;63.20;36.40;;;7.90;99.90;;;;;;4994714;28;20314;-70
2023/01/09 09:13:54;;;;;;;60.63;35.60;;;7.80;99.90;;;;;;4994669;28;20203;-71
2023/01/09 09:16:23;;;;;;;62.70;34.20;;;7.80;99.90;;;;;;4994831;28;20298;-70
2023/01/09 09:18:53;;;;;;;64.53;37.77;;;7.80;99.90;;;;;;4994163;28;20247;-70
2023/01/09 09:21:22;;;;;;;62.43;34.60;;;7.80;99.90;;;;;;4994894;28;20204;-71
2023/01/09 09:23:51;;;;;;;67.57;37.50;;;7.90;99.90;;;;;;4994436;28;20192;-72
2023/01/09 09:26:20;;;;;;;63.23;37.63;;;7.90;99.90;;;;;;4994461;28;20692;-72
2023/01/09 09:28:49;;;;;;;61.70;35.60;;;8.00;99.90;;;;;;4994473;28;20218;-72
2023/01/09 09:31:18;;;;;;;64.90;34.93;;;7.90;99.90;;;;;;4994413;28;20318;-71
2023/01/09 09:33:47;;;;;;;62.03;36.57;;;7.90;99.90;;;;;;4994257;28;20238;-71
2023/01/09 09:36:17;;;;;;;64.87;34.70;;;7.90;99.90;;;;;;4994321;28;20662;-71
2023/01/09 09:38:46;;;;;;;65.07;36.93;;;7.90;99.90;;;;;;4994241;28;20223;-71
2023/01/09 09:44:45;;;;;;;63.77;36.10;;;7.80;99.90;;;;;;4994234;28;20577;-71
2023/01/09 09:47:51;;;;;;;65.90;35.80;;;7.70;99.90;;;;;;4994024;28;20200;-71
2023/01/09 09:50:50;;;;;;;65.37;36.03;;;7.70;99.90;;;;;;4994069;28;20203;-71
2023/01/09 09:53:26;;;;;;;68.07;39.10;;;7.80;99.90;;;;;;4993990;28;20230;-70
2023/01/09 09:55:56;;;;;;;64.90;36.17;;;7.80;99.90;;;;;;4994201;28;20221;-71
2023/01/09 09:58:31;;;;;;;65.40;35.90;;;7.80;99.90;;;;;;4993965;28;20204;-72
2023/01/09 10:01:01;;;;;;;66.67;36.30;;;7.80;99.90;;;;;;4993723;28;20239;-70
2023/01/09 10:03:37;;;;;;;64.90;35.60;;;7.80;99.90;;;;;;4992333;28;20218;-73
2023/01/09 10:06:10;;;;;;;76.20;39.43;;;7.80;99.90;;;;;;4993778;28;20226;-73
2023/01/09 10:08:48;;;;;;;67.83;36.77;;;7.80;99.90;;;;;;4993721;28;20214;-71
2023/01/09 10:11:22;;;;;;;88.57;44.13;;;7.80;99.90;;;;;;4993694;28;20319;-69
2023/01/09 10:14:06;;;;;;;63.57;36.87;;;7.70;99.90;;;;;;4992162;28;20301;-71
2023/01/09 10:17:07;;;;;;;61.40;34.73;;;7.70;99.90;;;;;;4993357;28;20231;-71
2023/01/09 10:20:01;;;;;;;66.47;34.37;;;7.70;99.90;;;;;;4993330;28;20254;-69
2023/01/09 10:22:41;;;;;;;67.17;37.47;;;7.70;99.90;;;;;;4993350;28;20258;-69
2023/01/09 10:25:23;;;;;;;69.00;36.77;;;7.60;99.90;;;;;;4991925;28;20203;-70
2023/01/09 10:28:08;;;;;;;70.23;37.07;;;7.60;99.90;;;;;;4993491;28;20207;-70
2023/01/09 10:30:43;;;;;;;67.53;38.30;;;7.70;99.90;;;;;;4993264;28;20567;-69
2023/01/09 10:33:26;;;;;;;73.57;38.30;;;7.60;99.90;;;;;;4993094;28;20306;-70
2023/01/09 10:36:28;;;;;;;72.77;36.97;;;7.60;99.90;;;;;;4993382;28;20570;-70
2023/01/09 10:39:03;;;;;;;77.30;39.63;;;7.60;99.90;;;;;;4993129;28;20199;-71
2023/01/09 10:41:38;;;;;;;71.60;37.00;;;7.50;99.90;;;;;;4993015;28;20333;-71
2023/01/09 10:44:15;;;;;;;72.07;38.23;;;7.50;99.90;;;;;;4993004;28;20289;-70
2023/01/09 10:46:47;;;;;;;82.60;40.57;;;7.60;99.90;;;;;;4993198;28;20326;-72
2023/01/09 10:49:17;;;;;;;78.87;40.60;;;7.60;99.90;;;;;;4992912;28;20617;-71
2023/01/09 10:51:48;;;;;;;76.33;37.23;;;7.70;99.90;;;;;;4993090;28;20200;-73
2023/01/09 10:54:20;;;;;;;80.40;41.60;;;7.60;99.90;;;;;;4992963;28;20199;-72
2023/01/09 10:56:55;;;;;;;77.40;40.57;;;7.50;99.90;;;;;;4992693;28;20329;-70
2023/01/09 10:59:26;;;;;;;73.23;39.63;;;7.50;99.90;;;;;;4992846;28;20223;-70
2023/01/09 11:01:55;;;;;;;86.40;39.40;;;7.50;99.90;;;;;;4992840;28;20250;-70
2023/01/09 11:04:27;;;;;;;79.27;40.20;;;7.50;99.90;;;;;;4992790;28;20219;-69
2023/01/09 11:07:00;;;;;;;83.27;40.23;;;7.50;99.90;;;;;;4992694;28;20224;-70
2023/01/09 11:09:41;;;;;;;81.93;38.83;;;7.50;99.90;;;;;;4992970;28;20203;-71
2023/01/09 11:12:30;;;;;;;83.50;39.57;;;7.50;99.90;;;;;;4992942;28;20206;-71
2023/01/09 11:15:27;;;;;;;86.47;40.20;;;7.40;99.90;;;;;;4992848;28;20210;-69
2023/01/09 11:18:23;;;;;;;78.10;39.47;;;7.40;99.90;;;;;;4992843;28;20199;-70
2023/01/09 11:20:52;;;;;;;80.97;39.10;;;7.40;99.90;;;;;;4992625;28;20656;-69
2023/01/09 11:23:39;;;;;;;85.40;41.53;;;7.40;99.90;;;;;;4992783;28;20280;-70
2023/01/09 11:26:22;;;;;;;86.37;41.10;;;7.50;99.90;;;;;;4992577;28;20655;-70
2023/01/09 11:29:12;;;;;;;74.00;38.13;;;7.50;99.90;;;;;;4992875;28;20572;-71
2023/01/09 11:31:43;;;;;;;80.03;40.37;;;7.40;99.90;;;;;;4992598;28;20218;-70
2023/01/09 11:34:17;;;;;;;85.77;39.83;;;7.40;99.90;;;;;;4992587;28;20685;-69
2023/01/09 11:36:47;;;;;;;87.07;44.13;;;7.40;99.90;;;;;;4992817;28;20251;-70
2023/01/09 11:39:24;;;;;;;90.70;43.53;;;7.50;99.90;;;;;;4992441;28;20208;-71
2023/01/09 11:41:55;;;;;;;100.67;49.47;;;7.50;99.90;;;;;;4991298;28;20242;-73
2023/01/09 11:44:27;;;;;;;88.03;42.17;;;7.60;99.90;;;;;;4992530;28;20208;-71
2023/01/09 11:46:56;;;;;;;92.13;44.97;;;7.70;99.90;;;;;;4992479;28;20211;-70
2023/01/09 11:49:28;;;;;;;96.57;49.03;;;7.70;99.90;;;;;;4992590;28;20203;-70
2023/01/09 11:52:18;;;;;;;93.03;46.20;;;7.70;99.90;;;;;;4992787;28;20232;-70
2023/01/09 11:54:52;;;;;;;92.00;46.30;;;7.70;99.90;;;;;;4992589;28;20211;-71
2023/01/09 11:57:22;;;;;;;92.87;45.63;;;7.70;99.90;;;;;;4992347;28;20242;-72
2023/01/09 12:00:02;;;;;;;85.93;44.73;;;7.60;99.90;;;;;;4992492;28;20310;-70
2023/01/09 12:02:56;;;;;;;81.90;42.33;;;7.60;99.90;;;;;;4992402;28;20207;-71
2023/01/09 12:05:36;;;;;;;92.00;46.00;;;7.50;99.90;;;;;;4992375;28;20198;-69
2023/01/09 12:08:28;;;;;;;94.80;43.87;;;7.50;99.90;;;;;;4992312;28;20213;-70
2023/01/09 12:11:21;;;;;;;85.60;42.27;;;7.50;99.90;;;;;;4992399;28;20195;-69
2023/01/09 12:14:02;;;;;;;81.63;41.13;;;7.50;99.90;;;;;;4992285;28;20228;-70
2023/01/09 12:16:38;;;;;;;91.03;44.97;;;7.50;99.90;;;;;;4992315;28;20658;-70
2023/01/09 12:19:28;;;;;;;95.80;46.17;;;7.50;99.90;;;;;;4996088;28;20225;-71
2023/01/09 12:22:03;;;;;;;99.13;49.63;;;7.50;99.90;;;;;;4995576;28;20235;-69
2023/01/09 12:24:50;;;;;;;101.83;49.10;;;7.50;99.90;;;;;;4995663;28;20218;-70
2023/01/09 12:27:28;;;;;;;98.47;45.30;;;7.50;99.90;;;;;;4995696;28;20663;-71
2023/01/09 12:30:21;;;;;;;98.07;44.57;;;7.50;99.90;;;;;;4995701;28;20202;-71
2023/01/09 12:33:05;;;;;;;81.93;41.50;;;7.50;99.90;;;;;;4995658;28;20531;-71
2023/01/09 12:35:41;;;;;;;81.73;41.50;;;7.50;99.90;;;;;;4995749;28;20314;-72
2023/01/09 12:38:36;;;;;;;74.37;38.80;;;7.60;99.90;;;;;;4995450;28;20658;-71
2023/01/09 12:41:32;;;;;;;103.60;49.93;;;7.50;99.90;;;;;;4995250;28;20759;-70
2023/01/09 12:44:19;;;;;;;108.23;49.63;;;7.50;99.90;;;;;;4954553;29;20209;-70
2023/01/09 12:47:21;;;;;;;80.97;41.97;;;7.50;99.90;;;;;;4954409;28;20219;-70
2023/01/09 12:50:00;;;;;;;78.23;39.90;;;7.50;99.90;;;;;;4938307;29;20711;-69
2023/01/09 12:52:34;;;;;;;78.63;39.23;;;7.50;99.90;;;;;;4954416;29;20276;-70
2023/01/09 12:55:13;;;;;;;75.60;36.97;;;7.50;99.90;;;;;;4954280;29;20212;-72
2023/01/09 12:57:44;;;;;;;76.57;38.47;;;7.40;99.90;;;;;;4954046;29;20236;-71
2023/01/09 13:00:21;;;;;;;75.80;38.70;;;7.30;99.90;;;;;;4954214;29;20212;-70
2023/01/09 13:02:56;;;;;;;96.87;49.73;;;7.30;99.90;;;;;;4938290;29;20216;-69
2023/01/09 13:05:44;;;;;;;85.67;42.93;;;7.40;99.90;;;;;;4954061;29;20229;-70
2023/01/09 13:08:17;;;;;;;102.63;49.87;;;7.30;99.90;;;;;;4954049;29;20300;-70
2023/01/09 13:10:49;;;;;;;81.73;41.47;;;7.40;99.90;;;;;;4954045;29;20600;-71
2023/01/09 13:13:20;;;;;;;78.73;39.27;;;7.40;99.90;;;;;;4953879;29;20201;-70
2023/01/09 13:15:54;;;;;;;77.13;40.80;;;7.40;99.90;;;;;;4954011;29;20218;-69
2023/01/09 13:18:29;;;;;;;76.97;37.43;;;7.30;99.90;;;;;;4953903;29;20313;-70